Station Historical Data
Daily Summary for July 16, 2017 Units:  English    Metric   Both
« Previous Day
Next Day »
Daily Weekly Monthly Yearly Custom
  High: Low: Average:
Temperature: 80.7 °F 63.3 °F 72.4 °F
Dew Point: 66.1 °F 59.6 °F 62.9 °F
Humidity: 93% 55% 74%
Wind Speed: 12.0mph 0.0mph 2.7mph
Wind Gust: 16.0mph - -
Wind- - SW
Pressure: 29.97 in 29.90 in -
Precipitation: 0.00 in    
Historical Graphs
 
 
Tabular Data for July 16, 2017
Time Temperature Dew Point Pressure Wind Wind Speed Wind Gust Humidity Rainfall Rate (Hourly)
00:04 67.9 °F 62.5 °F 29.95 in Calm     83% 0.00 in
00:09 67.5 °F 62.2 °F 29.95 in Calm     83% 0.00 in
00:14 67.0 °F 61.7 °F 29.95 in Calm     83% 0.00 in
00:19 66.6 °F 61.3 °F 29.95 in Calm     83% 0.00 in
00:24 66.5 °F 61.5 °F 29.95 in Calm     84% 0.00 in
00:29 66.2 °F 60.9 °F 29.95 in Calm     83% 0.00 in
00:34 65.9 °F 60.9 °F 29.95 in Calm     84% 0.00 in
00:39 65.6 °F 60.6 °F 29.95 in Calm     84% 0.00 in
00:44 65.5 °F 60.5 °F 29.95 in Calm     84% 0.00 in
00:49 65.1 °F 60.1 °F 29.95 in Calm     84% 0.00 in
00:54 64.9 °F 60.3 °F 29.95 in Calm     85% 0.00 in
00:59 64.7 °F 60.1 °F 29.95 in Calm     85% 0.00 in
01:04 64.5 °F 59.9 °F 29.95 in Calm     85% 0.00 in
01:09 64.2 °F 59.6 °F 29.95 in Calm     85% 0.00 in
01:14 64.3 °F 60.0 °F 29.95 in Calm     86% 0.00 in
01:19 64.5 °F 60.5 °F 29.95 in Calm     87% 0.00 in
01:24 64.5 °F 60.9 °F 29.95 in Calm     88% 0.00 in
01:29 64.5 °F 61.2 °F 29.95 in Calm     89% 0.00 in
01:34 64.5 °F 61.2 °F 29.96 in Calm     89% 0.00 in
01:39 64.5 °F 61.2 °F 29.96 in Calm     89% 0.00 in
01:44 64.3 °F 61.3 °F 29.96 in Calm     90% 0.00 in
01:49 64.1 °F 61.1 °F 29.96 in Calm     90% 0.00 in
01:54 64.1 °F 61.1 °F 29.96 in Calm     90% 0.00 in
01:59 64.4 °F 61.7 °F 29.96 in Calm     91% 0.00 in
02:04 64.5 °F 61.8 °F 29.96 in Calm     91% 0.00 in
02:09 64.3 °F 61.6 °F 29.96 in Calm     91% 0.00 in
02:14 64.1 °F 61.4 °F 29.96 in Calm     91% 0.00 in
02:19 64.0 °F 61.6 °F 29.95 in Calm     92% 0.00 in
02:24 63.9 °F 61.2 °F 29.96 in Calm     91% 0.00 in
02:29 63.8 °F 61.1 °F 29.96 in Calm     91% 0.00 in
02:34 63.6 °F 61.2 °F 29.95 in Calm     92% 0.00 in
02:39 63.5 °F 61.1 °F 29.95 in Calm     92% 0.00 in
02:44 63.3 °F 60.9 °F 29.95 in Calm     92% 0.00 in
02:49 63.8 °F 61.7 °F 29.95 in Calm     93% 0.00 in
02:54 64.0 °F 61.6 °F 29.95 in Calm     92% 0.00 in
02:59 64.1 °F 62.0 °F 29.95 in Calm     93% 0.00 in
03:04 64.1 °F 61.7 °F 29.95 in Calm     92% 0.00 in
03:09 64.4 °F 62.3 °F 29.95 in Calm     93% 0.00 in
03:14 64.5 °F 62.4 °F 29.95 in Calm     93% 0.00 in
03:19 64.7 °F 62.6 °F 29.95 in Calm     93% 0.00 in
03:24 65.2 °F 63.1 °F 29.95 in Calm     93% 0.00 in
03:29 65.6 °F 63.5 °F 29.95 in Calm     93% 0.00 in
03:34 65.9 °F 63.8 °F 29.95 in Calm     93% 0.00 in
03:39 66.0 °F 63.9 °F 29.95 in Calm     93% 0.00 in
03:44 66.1 °F 64.0 °F 29.95 in Calm     93% 0.00 in
03:49 65.9 °F 63.5 °F 29.95 in Calm     92% 0.00 in
03:54 65.8 °F 63.7 °F 29.95 in Calm     93% 0.00 in
03:59 66.1 °F 63.7 °F 29.95 in Calm   3.0 mph 92% 0.00 in
04:04 66.2 °F 63.8 °F 29.95 in SSW 2.0 mph 5.0 mph 92% 0.00 in
04:09 66.3 °F 63.9 °F 29.95 in Calm   4.0 mph 92% 0.00 in
04:14 66.4 °F 64.0 °F 29.95 in Calm   3.0 mph 92% 0.00 in
04:19 66.3 °F 63.9 °F 29.95 in SSW 1.0 mph 4.0 mph 92% 0.00 in
04:24 66.4 °F 64.0 °F 29.95 in SSW 1.0 mph 4.0 mph 92% 0.00 in
04:29 66.4 °F 63.7 °F 29.95 in SSW 3.0 mph 6.0 mph 91% 0.00 in
04:34 66.4 °F 63.7 °F 29.95 in SSW 2.0 mph 7.0 mph 91% 0.00 in
04:39 66.7 °F 64.0 °F 29.95 in SSW 1.0 mph 6.0 mph 91% 0.00 in
04:44 66.7 °F 64.0 °F 29.95 in SW 3.0 mph 4.0 mph 91% 0.00 in
04:49 66.8 °F 64.1 °F 29.96 in SSW 2.0 mph 5.0 mph 91% 0.00 in
04:54 66.9 °F 64.2 °F 29.96 in SSW 2.0 mph 9.0 mph 91% 0.00 in
04:59 67.1 °F 64.1 °F 29.96 in SSW 3.0 mph 9.0 mph 90% 0.00 in
05:04 66.9 °F 63.9 °F 29.96 in SSW 3.0 mph 7.0 mph 90% 0.00 in
05:09 66.6 °F 63.3 °F 29.96 in SSW 3.0 mph 6.0 mph 89% 0.00 in
05:14 66.3 °F 63.0 °F 29.96 in SSW 2.0 mph 5.0 mph 89% 0.00 in
05:19 66.0 °F 62.7 °F 29.96 in SSW 3.0 mph 6.0 mph 89% 0.00 in
05:24 65.6 °F 62.3 °F 29.96 in SSW 1.0 mph 5.0 mph 89% 0.00 in
05:29 65.4 °F 62.1 °F 29.96 in SSW 3.0 mph 4.0 mph 89% 0.00 in
05:34 65.2 °F 61.9 °F 29.96 in SSW 2.0 mph 5.0 mph 89% 0.00 in
05:39 65.0 °F 61.7 °F 29.97 in SSW 2.0 mph 6.0 mph 89% 0.00 in
05:44 64.8 °F 61.2 °F 29.96 in Calm   5.0 mph 88% 0.00 in
05:49 64.8 °F 61.5 °F 29.97 in SSW 2.0 mph 5.0 mph 89% 0.00 in
05:54 64.8 °F 61.2 °F 29.97 in SW 2.0 mph 6.0 mph 88% 0.00 in
05:59 64.7 °F 61.1 °F 29.97 in SSW 3.0 mph 6.0 mph 88% 0.00 in
06:04 64.6 °F 61.0 °F 29.97 in SSW 2.0 mph 5.0 mph 88% 0.00 in
06:09 64.5 °F 60.9 °F 29.97 in SW 5.0 mph 5.0 mph 88% 0.00 in
06:14 64.5 °F 60.9 °F 29.97 in SSW 2.0 mph 5.0 mph 88% 0.00 in
06:19 64.7 °F 61.1 °F 29.97 in SSW 2.0 mph 5.0 mph 88% 0.00 in
06:24 64.9 °F 60.9 °F 29.96 in SSW 1.0 mph 5.0 mph 87% 0.00 in
06:29 65.1 °F 61.1 °F 29.97 in South 3.0 mph 5.0 mph 87% 0.00 in
06:34 65.2 °F 61.2 °F 29.97 in SSW 3.0 mph 4.0 mph 87% 0.00 in
06:39 65.2 °F 60.9 °F 29.97 in SSW 2.0 mph 6.0 mph 86% 0.00 in
06:44 65.2 °F 60.9 °F 29.97 in SSW 1.0 mph 6.0 mph 86% 0.00 in
06:49 65.3 °F 61.0 °F 29.97 in SSW 2.0 mph 4.0 mph 86% 0.00 in
06:54 65.4 °F 61.1 °F 29.97 in SW 2.0 mph 4.0 mph 86% 0.00 in
06:59 65.4 °F 61.1 °F 29.96 in Calm   4.0 mph 86% 0.00 in
07:04 65.4 °F 61.1 °F 29.96 in Calm     86% 0.00 in
07:09 65.4 °F 61.1 °F 29.96 in Calm     86% 0.00 in
07:14 65.7 °F 61.4 °F 29.96 in Calm     86% 0.00 in
07:19 65.9 °F 61.3 °F 29.96 in Calm     85% 0.00 in
07:24 66.3 °F 61.7 °F 29.96 in Calm     85% 0.00 in
07:29 66.3 °F 61.3 °F 29.96 in SSW 1.0 mph 5.0 mph 84% 0.00 in
07:34 66.2 °F 60.9 °F 29.96 in SSW 2.0 mph 4.0 mph 83% 0.00 in
07:39 66.1 °F 61.1 °F 29.96 in South 1.0 mph 3.0 mph 84% 0.00 in
07:44 66.6 °F 61.3 °F 29.96 in South 1.0 mph 3.0 mph 83% 0.00 in
07:49 67.2 °F 61.5 °F 29.96 in South 1.0 mph 4.0 mph 82% 0.00 in
07:54 67.9 °F 62.2 °F 29.96 in Calm   4.0 mph 82% 0.00 in
07:59 68.5 °F 61.7 °F 29.96 in SSW 3.0 mph 4.0 mph 79% 0.00 in
08:04 68.4 °F 61.3 °F 29.96 in South 5.0 mph 6.0 mph 78% 0.00 in
08:09 68.8 °F 61.3 °F 29.96 in SSW 3.0 mph 6.0 mph 77% 0.00 in
08:14 69.6 °F 61.7 °F 29.96 in SW 3.0 mph 7.0 mph 76% 0.00 in
08:19 70.0 °F 61.7 °F 29.96 in SW 3.0 mph 8.0 mph 75% 0.00 in
08:24 70.5 °F 61.8 °F 29.96 in SW 3.0 mph 8.0 mph 74% 0.00 in
08:29 70.5 °F 61.4 °F 29.96 in SW 3.0 mph 6.0 mph 73% 0.00 in
08:34 70.8 °F 61.7 °F 29.96 in SW 3.0 mph 7.0 mph 73% 0.00 in
08:39 71.5 °F 62.0 °F 29.96 in SW 3.0 mph 7.0 mph 72% 0.00 in
08:44 71.5 °F 61.6 °F 29.96 in SSW 2.0 mph 7.0 mph 71% 0.00 in
08:49 71.8 °F 61.5 °F 29.96 in WSW 7.0 mph 8.0 mph 70% 0.00 in
08:54 72.0 °F 61.7 °F 29.96 in SSW 3.0 mph 8.0 mph 70% 0.00 in
08:59 72.4 °F 61.7 °F 29.96 in SW 2.0 mph 6.0 mph 69% 0.00 in
09:04 72.8 °F 62.0 °F 29.96 in SSW 2.0 mph 10.0 mph 69% 0.00 in
09:09 72.9 °F 61.3 °F 29.95 in SW 4.0 mph 10.0 mph 67% 0.00 in
09:14 73.3 °F 62.1 °F 29.96 in WSW 4.0 mph 7.0 mph 68% 0.00 in
09:19 74.0 °F 62.8 °F 29.95 in SW 4.0 mph 7.0 mph 68% 0.00 in
09:24 73.7 °F 61.2 °F 29.95 in SW 4.0 mph 9.0 mph 65% 0.00 in
09:29 73.7 °F 61.2 °F 29.95 in SW 5.0 mph 10.0 mph 65% 0.00 in
09:34 73.7 °F 61.2 °F 29.94 in SSW 6.0 mph 10.0 mph 65% 0.00 in
09:39 74.0 °F 61.5 °F 29.94 in SW 5.0 mph 10.0 mph 65% 0.00 in
09:44 74.0 °F 61.5 °F 29.95 in SSW 5.0 mph 9.0 mph 65% 0.00 in
09:49 74.5 °F 62.0 °F 29.94 in WNW 3.0 mph 9.0 mph 65% 0.00 in
09:54 74.8 °F 61.4 °F 29.94 in SW 6.0 mph 9.0 mph 63% 0.00 in
09:59 74.9 °F 61.0 °F 29.94 in SW 4.0 mph 10.0 mph 62% 0.00 in
10:04 75.1 °F 61.6 °F 29.94 in SSW 7.0 mph 9.0 mph 63% 0.00 in
10:09 75.5 °F 61.6 °F 29.94 in SW 4.0 mph 10.0 mph 62% 0.00 in
10:14 75.4 °F 61.9 °F 29.94 in SW 5.0 mph 11.0 mph 63% 0.00 in
10:19 75.8 °F 61.4 °F 29.94 in WSW 5.0 mph 11.0 mph 61% 0.00 in
10:24 75.6 °F 61.7 °F 29.94 in WSW 2.0 mph 10.0 mph 62% 0.00 in
10:29 76.1 °F 62.6 °F 29.94 in SSW 6.0 mph 10.0 mph 63% 0.00 in
10:34 76.8 °F 62.3 °F 29.94 in WSW 2.0 mph 7.0 mph 61% 0.00 in
10:39 77.1 °F 62.1 °F 29.94 in West 6.0 mph 7.0 mph 60% 0.00 in
10:44 77.2 °F 62.2 °F 29.94 in WSW 4.0 mph 7.0 mph 60% 0.00 in
10:49 76.9 °F 61.5 °F 29.94 in WSW 4.0 mph 10.0 mph 59% 0.00 in
10:54 77.4 °F 62.4 °F 29.94 in WSW 5.0 mph 12.0 mph 60% 0.00 in
10:59 77.5 °F 63.0 °F 29.94 in SW 5.0 mph 12.0 mph 61% 0.00 in
11:04 78.0 °F 63.0 °F 29.94 in SW 4.0 mph 8.0 mph 60% 0.00 in
11:09 78.5 °F 63.0 °F 29.95 in SW 3.0 mph 6.0 mph 59% 0.00 in
11:14 79.3 °F 63.7 °F 29.94 in SW 4.0 mph 9.0 mph 59% 0.00 in
11:19 78.9 °F 62.4 °F 29.94 in WSW 1.0 mph 10.0 mph 57% 0.00 in
11:24 77.7 °F 63.2 °F 29.94 in WSW 3.0 mph 9.0 mph 61% 0.00 in
11:29 78.3 °F 64.2 °F 29.95 in WSW 10.0 mph 10.0 mph 62% 0.00 in
11:34 78.2 °F 63.2 °F 29.94 in WSW 3.0 mph 11.0 mph 60% 0.00 in
11:39 78.0 °F 63.0 °F 29.94 in SW 6.0 mph 12.0 mph 60% 0.00 in
11:44 77.7 °F 62.2 °F 29.94 in SW 6.0 mph 12.0 mph 59% 0.00 in
11:49 77.7 °F 62.2 °F 29.94 in WSW 6.0 mph 12.0 mph 59% 0.00 in
11:54 78.3 °F 63.3 °F 29.94 in WSW 6.0 mph 12.0 mph 60% 0.00 in
11:59 78.4 °F 62.9 °F 29.94 in West 5.0 mph 12.0 mph 59% 0.00 in
12:04 78.7 °F 63.2 °F 29.94 in WNW 6.0 mph 10.0 mph 59% 0.00 in
12:09 78.6 °F 63.6 °F 29.95 in WSW 5.0 mph 10.0 mph 60% 0.00 in
12:14 78.9 °F 63.4 °F 29.95 in West 5.0 mph 10.0 mph 59% 0.00 in
12:19 79.6 °F 65.0 °F 29.95 in SW 10.0 mph 11.0 mph 61% 0.00 in
12:24 79.2 °F 64.6 °F 29.95 in NW 5.0 mph 10.0 mph 61% 0.00 in
12:29 78.4 °F 63.8 °F 29.95 in West 6.0 mph 13.0 mph 61% 0.00 in
12:34 77.6 °F 63.5 °F 29.95 in SW 5.0 mph 14.0 mph 62% 0.00 in
12:39 77.5 °F 64.4 °F 29.95 in WSW 5.0 mph 14.0 mph 64% 0.00 in
12:44 78.0 °F 63.9 °F 29.95 in WSW 5.0 mph 9.0 mph 62% 0.00 in
12:49 78.5 °F 63.9 °F 29.95 in SSW 6.0 mph 11.0 mph 61% 0.00 in
12:54 78.0 °F 64.4 °F 29.95 in West 4.0 mph 11.0 mph 63% 0.00 in
12:59 79.0 °F 65.3 °F 29.94 in West 6.0 mph 12.0 mph 63% 0.00 in
13:04 79.9 °F 64.8 °F 29.94 in WSW 5.0 mph 12.0 mph 60% 0.00 in
13:09 79.0 °F 64.4 °F 29.94 in WSW 5.0 mph 11.0 mph 61% 0.00 in
13:14 79.0 °F 64.9 °F 29.94 in WSW 5.0 mph 11.0 mph 62% 0.00 in
13:19 78.5 °F 65.3 °F 29.94 in WSW 6.0 mph 11.0 mph 64% 0.00 in
13:24 78.9 °F 65.2 °F 29.94 in West 7.0 mph 12.0 mph 63% 0.00 in
13:29 78.9 °F 64.8 °F 29.94 in SW 5.0 mph 13.0 mph 62% 0.00 in
13:34 78.8 °F 64.2 °F 29.94 in SW 6.0 mph 13.0 mph 61% 0.00 in
13:39 79.3 °F 66.1 °F 29.93 in WSW 6.0 mph 12.0 mph 64% 0.00 in
13:44 80.3 °F 65.6 °F 29.94 in SW 7.0 mph 11.0 mph 61% 0.00 in
13:49 79.7 °F 65.5 °F 29.93 in SW 6.0 mph 13.0 mph 62% 0.00 in
13:54 79.8 °F 64.7 °F 29.93 in WSW 5.0 mph 11.0 mph 60% 0.00 in
13:59 79.7 °F 64.6 °F 29.93 in SW 10.0 mph 12.0 mph 60% 0.00 in
14:04 79.8 °F 64.7 °F 29.93 in SW 6.0 mph 14.0 mph 60% 0.00 in
14:09 80.4 °F 64.8 °F 29.93 in SW 6.0 mph 14.0 mph 59% 0.00 in
14:14 80.3 °F 64.7 °F 29.93 in SW 6.0 mph 13.0 mph 59% 0.00 in
14:19 80.2 °F 65.1 °F 29.93 in SW 6.0 mph 16.0 mph 60% 0.00 in
14:24 79.6 °F 64.5 °F 29.93 in SW 7.0 mph 16.0 mph 60% 0.00 in
14:29 79.8 °F 64.7 °F 29.93 in WSW 6.0 mph 12.0 mph 60% 0.00 in
14:34 79.6 °F 64.5 °F 29.93 in WSW 7.0 mph 13.0 mph 60% 0.00 in
14:39 79.6 °F 64.5 °F 29.93 in West 7.0 mph 14.0 mph 60% 0.00 in
14:44 80.2 °F 65.1 °F 29.93 in SSW 8.0 mph 13.0 mph 60% 0.00 in
14:49 80.0 °F 64.9 °F 29.93 in SW 7.0 mph 14.0 mph 60% 0.00 in
14:54 79.6 °F 64.0 °F 29.92 in SW 12.0 mph 13.0 mph 59% 0.00 in
14:59 80.0 °F 64.9 °F 29.92 in WSW 6.0 mph 12.0 mph 60% 0.00 in
15:04 79.4 °F 64.8 °F 29.92 in SW 6.0 mph 13.0 mph 61% 0.00 in
15:09 79.4 °F 64.8 °F 29.92 in SW 7.0 mph 14.0 mph 61% 0.00 in
15:14 79.8 °F 65.2 °F 29.92 in WSW 7.0 mph 16.0 mph 61% 0.00 in
15:19 79.8 °F 64.2 °F 29.92 in West 6.0 mph 13.0 mph 59% 0.00 in
15:24 79.6 °F 64.0 °F 29.92 in WSW 9.0 mph 13.0 mph 59% 0.00 in
15:29 80.0 °F 64.4 °F 29.92 in WNW 8.0 mph 13.0 mph 59% 0.00 in
15:34 80.7 °F 65.5 °F 29.92 in SW 6.0 mph 13.0 mph 60% 0.00 in
15:39 79.7 °F 63.6 °F 29.92 in WSW 6.0 mph 14.0 mph 58% 0.00 in
15:44 78.7 °F 62.7 °F 29.92 in WSW 6.0 mph 14.0 mph 58% 0.00 in
15:49 78.6 °F 63.1 °F 29.93 in WSW 7.0 mph 14.0 mph 59% 0.00 in
15:54 78.0 °F 63.0 °F 29.92 in WSW 6.0 mph 14.0 mph 60% 0.00 in
15:59 77.7 °F 62.7 °F 29.92 in West 11.0 mph 12.0 mph 60% 0.00 in
16:04 77.9 °F 62.4 °F 29.92 in WNW 6.0 mph 11.0 mph 59% 0.00 in
16:09 78.9 °F 63.8 °F 29.92 in West 4.0 mph 11.0 mph 60% 0.00 in
16:14 79.4 °F 63.3 °F 29.92 in WNW 6.0 mph 11.0 mph 58% 0.00 in
16:19 79.9 °F 64.3 °F 29.92 in SW 8.0 mph 11.0 mph 59% 0.00 in
16:24 79.8 °F 64.2 °F 29.92 in WSW 4.0 mph 12.0 mph 59% 0.00 in
16:29 80.4 °F 64.3 °F 29.91 in WSW 5.0 mph 12.0 mph 58% 0.00 in
16:34 79.9 °F 63.8 °F 29.91 in SW 6.0 mph 12.0 mph 58% 0.00 in
16:39 79.8 °F 62.7 °F 29.91 in WSW 5.0 mph 12.0 mph 56% 0.00 in
16:44 79.0 °F 63.0 °F 29.91 in WSW 5.0 mph 10.0 mph 58% 0.00 in
16:49 79.5 °F 63.9 °F 29.91 in WSW 5.0 mph 10.0 mph 59% 0.00 in
16:54 79.5 °F 62.9 °F 29.91 in SW 8.0 mph 11.0 mph 57% 0.00 in
16:59 79.6 °F 64.0 °F 29.90 in West 5.0 mph 10.0 mph 59% 0.00 in
17:04 80.0 °F 62.9 °F 29.90 in WSW 6.0 mph 13.0 mph 56% 0.00 in
17:09 79.7 °F 62.1 °F 29.91 in West 6.0 mph 13.0 mph 55% 0.00 in
17:14 80.0 °F 63.4 °F 29.91 in WSW 6.0 mph 13.0 mph 57% 0.00 in
17:19 79.8 °F 63.2 °F 29.91 in SW 3.0 mph 9.0 mph 57% 0.00 in
17:24 79.4 °F 63.3 °F 29.91 in SSW 1.0 mph 8.0 mph 58% 0.00 in
17:29 78.4 °F 62.4 °F 29.91 in WSW 3.0 mph 11.0 mph 58% 0.00 in
17:34 78.7 °F 63.2 °F 29.90 in SW 5.0 mph 11.0 mph 59% 0.00 in
17:39 78.5 °F 63.0 °F 29.90 in WSW 2.0 mph 10.0 mph 59% 0.00 in
17:44 78.0 °F 62.5 °F 29.90 in WSW 4.0 mph 7.0 mph 59% 0.00 in
17:49 77.7 °F 62.7 °F 29.91 in SW 3.0 mph 12.0 mph 60% 0.00 in
17:54 77.5 °F 62.0 °F 29.90 in SW 6.0 mph 10.0 mph 59% 0.00 in
17:59 77.5 °F 63.0 °F 29.91 in SW 2.0 mph 9.0 mph 61% 0.00 in
18:04 77.6 °F 63.1 °F 29.90 in WSW 4.0 mph 9.0 mph 61% 0.00 in
18:09 77.1 °F 63.1 °F 29.90 in WSW 3.0 mph 7.0 mph 62% 0.00 in
18:14 77.2 °F 63.2 °F 29.90 in WSW 3.0 mph 6.0 mph 62% 0.00 in
18:19 77.0 °F 63.0 °F 29.91 in South 6.0 mph 7.0 mph 62% 0.00 in
18:24 76.5 °F 63.0 °F 29.91 in West 2.0 mph 8.0 mph 63% 0.00 in
18:29 76.2 °F 62.7 °F 29.91 in SW 3.0 mph 6.0 mph 63% 0.00 in
18:34 76.1 °F 63.0 °F 29.91 in SW 3.0 mph 8.0 mph 64% 0.00 in
18:39 75.8 °F 62.8 °F 29.92 in West 5.0 mph 8.0 mph 64% 0.00 in
18:44 75.8 °F 63.2 °F 29.92 in SSE 3.0 mph 7.0 mph 65% 0.00 in
18:49 75.7 °F 62.7 °F 29.92 in WSW 2.0 mph 8.0 mph 64% 0.00 in
18:54 75.7 °F 63.1 °F 29.92 in SW 1.0 mph 5.0 mph 65% 0.00 in
18:59 75.6 °F 63.0 °F 29.92 in SW 1.0 mph 5.0 mph 65% 0.00 in
19:04 75.6 °F 63.4 °F 29.92 in WSW 2.0 mph 5.0 mph 66% 0.00 in
19:09 75.5 °F 62.9 °F 29.92 in WSW 2.0 mph 5.0 mph 65% 0.00 in
19:14 75.5 °F 62.9 °F 29.92 in SW 1.0 mph 3.0 mph 65% 0.00 in
19:19 75.5 °F 62.9 °F 29.92 in SW 2.0 mph 3.0 mph 65% 0.00 in
19:24 75.3 °F 62.7 °F 29.92 in SW 1.0 mph 4.0 mph 65% 0.00 in
19:29 75.3 °F 62.7 °F 29.92 in West 3.0 mph 5.0 mph 65% 0.00 in
19:34 75.3 °F 63.2 °F 29.92 in WSW 2.0 mph 5.0 mph 66% 0.00 in
19:39 75.3 °F 63.2 °F 29.93 in Calm   4.0 mph 66% 0.00 in
19:44 75.2 °F 63.1 °F 29.93 in WSW 2.0 mph 4.0 mph 66% 0.00 in
19:49 75.3 °F 63.6 °F 29.93 in WNW 2.0 mph 5.0 mph 67% 0.00 in
19:54 75.1 °F 63.0 °F 29.93 in Calm   4.0 mph 66% 0.00 in
19:59 75.0 °F 62.9 °F 29.93 in West 2.0 mph 4.0 mph 66% 0.00 in
20:04 74.9 °F 63.2 °F 29.93 in WNW 1.0 mph 4.0 mph 67% 0.00 in
20:09 74.9 °F 63.2 °F 29.93 in West 1.0 mph 3.0 mph 67% 0.00 in
20:14 74.9 °F 62.8 °F 29.93 in West 1.0 mph 3.0 mph 66% 0.00 in
20:19 74.7 °F 63.0 °F 29.92 in West 1.0 mph 4.0 mph 67% 0.00 in
20:24 74.6 °F 62.9 °F 29.92 in West 3.0 mph 3.0 mph 67% 0.00 in
20:29 74.5 °F 62.8 °F 29.92 in West 1.0 mph 3.0 mph 67% 0.00 in
20:34 74.5 °F 63.2 °F 29.92 in West 1.0 mph 3.0 mph 68% 0.00 in
20:39 74.5 °F 63.2 °F 29.92 in Calm   3.0 mph 68% 0.00 in
20:44 74.5 °F 63.2 °F 29.92 in Calm     68% 0.00 in
20:49 74.2 °F 63.0 °F 29.92 in Calm     68% 0.00 in
20:54 74.1 °F 63.7 °F 29.92 in Calm     70% 0.00 in
20:59 74.0 °F 64.0 °F 29.92 in Calm     71% 0.00 in
21:04 73.4 °F 64.2 °F 29.92 in Calm     73% 0.00 in
21:09 73.0 °F 63.8 °F 29.92 in Calm     73% 0.00 in
21:14 72.4 °F 64.0 °F 29.92 in Calm     75% 0.00 in
21:19 72.4 °F 64.0 °F 29.92 in Calm     75% 0.00 in
21:24 72.6 °F 63.8 °F 29.92 in Calm     74% 0.00 in
21:29 72.7 °F 64.3 °F 29.92 in Calm     75% 0.00 in
21:34 72.6 °F 64.2 °F 29.92 in Calm   3.0 mph 75% 0.00 in
21:39 72.4 °F 64.0 °F 29.92 in Calm   3.0 mph 75% 0.00 in
21:44 72.0 °F 64.0 °F 29.92 in SW 1.0 mph 3.0 mph 76% 0.00 in
21:49 71.8 °F 64.2 °F 29.93 in Calm   2.0 mph 77% 0.00 in
21:54 71.8 °F 64.2 °F 29.93 in Calm     77% 0.00 in
21:59 71.6 °F 64.0 °F 29.93 in Calm     77% 0.00 in
22:04 71.5 °F 63.9 °F 29.93 in Calm     77% 0.00 in
22:09 71.3 °F 64.1 °F 29.93 in Calm     78% 0.00 in
22:14 71.3 °F 64.1 °F 29.93 in Calm     78% 0.00 in
22:19 71.3 °F 64.4 °F 29.94 in Calm   2.0 mph 79% 0.00 in
22:24 71.4 °F 64.2 °F 29.93 in Calm     78% 0.00 in
22:29 71.4 °F 64.5 °F 29.93 in Calm     79% 0.00 in
22:34 71.1 °F 65.0 °F 29.93 in Calm     81% 0.01 in
22:39 70.6 °F 64.8 °F 29.92 in Calm     82% 0.01 in
22:44 70.3 °F 64.9 °F 29.93 in Calm     83% 0.02 in
22:49 70.1 °F 65.4 °F 29.93 in Calm     85% 0.02 in
22:54 69.8 °F 65.1 °F 29.93 in Calm     85% 0.02 in
22:59 69.6 °F 65.2 °F 29.93 in Calm     86% 0.02 in
23:04 69.7 °F 65.7 °F 29.94 in SW 1.0 mph 2.0 mph 87% 0.02 in
23:09 69.6 °F 65.6 °F 29.94 in ESE 1.0 mph 3.0 mph 87% 0.02 in
23:14 69.6 °F 65.2 °F 29.94 in Calm   4.0 mph 86% 0.02 in
23:19 69.8 °F 65.4 °F 29.94 in Calm   3.0 mph 86% 0.02 in
23:24 69.8 °F 65.4 °F 29.94 in Calm   2.0 mph 86% 0.02 in
23:29 69.8 °F 65.4 °F 29.94 in Calm     86% 0.02 in
23:34 69.6 °F 65.2 °F 29.94 in Calm     86% 0.01 in
23:39 69.5 °F 64.8 °F 29.94 in ENE 1.0 mph 3.0 mph 85% 0.01 in
23:44 69.5 °F 65.1 °F 29.93 in East 1.0 mph 3.0 mph 86% 0.00 in
23:49 69.3 °F 64.6 °F 29.93 in East 1.0 mph 5.0 mph 85% 0.00 in
23:54 69.2 °F 64.5 °F 29.93 in East 2.0 mph 6.0 mph 85% 0.00 in
23:59 69.2 °F 64.5 °F 29.93 in ESE 2.0 mph 6.0 mph 85% 0.00 in
Buffalo, New York, USA
Compliments of Weather Underground - 2.5 mb